sensor_id;sensor_type;location;lat;lon;timestamp;temperature;humidity
51091;DHT22;37136;43.614;3.908;2022-07-18T00:01:38;26.50;99.90
51091;DHT22;37136;43.614;3.908;2022-07-18T00:04:04;26.60;99.90
51091;DHT22;37136;43.614;3.908;2022-07-18T00:06:30;26.60;99.90
51091;DHT22;37136;43.614;3.908;2022-07-18T00:08:56;26.50;99.90
51091;DHT22;37136;43.614;3.908;2022-07-18T00:11:22;26.40;99.90
51091;DHT22;37136;43.614;3.908;2022-07-18T00:13:48;26.50;99.90
51091;DHT22;37136;43.614;3.908;2022-07-18T00:16:16;26.50;99.90
51091;DHT22;37136;43.614;3.908;2022-07-18T00:18:42;26.40;99.90
51091;DHT22;37136;43.614;3.908;2022-07-18T00:21:08;26.50;99.90
51091;DHT22;37136;43.614;3.908;2022-07-18T00:23:34;26.20;1.00
51091;DHT22;37136;43.614;3.908;2022-07-18T00:26:00;26.20;1.00
51091;DHT22;37136;43.614;3.908;2022-07-18T00:28:25;26.20;1.00
51091;DHT22;37136;43.614;3.908;2022-07-18T00:30:51;26.40;1.00
51091;DHT22;37136;43.614;3.908;2022-07-18T00:33:17;26.30;1.00
51091;DHT22;37136;43.614;3.908;2022-07-18T00:35:43;26.20;1.00
51091;DHT22;37136;43.614;3.908;2022-07-18T00:38:08;26.20;1.00
51091;DHT22;37136;43.614;3.908;2022-07-18T00:40:34;26.20;1.00
51091;DHT22;37136;43.614;3.908;2022-07-18T00:43:00;26.10;1.00
51091;DHT22;37136;43.614;3.908;2022-07-18T00:45:26;26.00;1.00
51091;DHT22;37136;43.614;3.908;2022-07-18T00:47:52;25.90;1.00
51091;DHT22;37136;43.614;3.908;2022-07-18T00:50:22;26.00;1.00
51091;DHT22;37136;43.614;3.908;2022-07-18T00:52:48;25.90;1.00
51091;DHT22;37136;43.614;3.908;2022-07-18T00:55:15;25.90;1.00
51091;DHT22;37136;43.614;3.908;2022-07-18T00:57:41;25.70;1.00
51091;DHT22;37136;43.614;3.908;2022-07-18T01:00:10;25.80;1.00
51091;DHT22;37136;43.614;3.908;2022-07-18T01:02:56;25.70;1.00
51091;DHT22;37136;43.614;3.908;2022-07-18T01:05:22;25.70;1.00
51091;DHT22;37136;43.614;3.908;2022-07-18T01:07:47;25.60;1.00
51091;DHT22;37136;43.614;3.908;2022-07-18T01:10:13;25.60;1.00
51091;DHT22;37136;43.614;3.908;2022-07-18T01:12:39;25.60;1.00
51091;DHT22;37136;43.614;3.908;2022-07-18T01:15:06;25.70;1.00
51091;DHT22;37136;43.614;3.908;2022-07-18T01:17:32;25.40;1.00
51091;DHT22;37136;43.614;3.908;2022-07-18T01:19:57;25.50;1.00
51091;DHT22;37136;43.614;3.908;2022-07-18T01:22:24;25.60;1.00
51091;DHT22;37136;43.614;3.908;2022-07-18T01:24:49;25.50;1.00
51091;DHT22;37136;43.614;3.908;2022-07-18T01:27:17;25.50;1.00
51091;DHT22;37136;43.614;3.908;2022-07-18T01:29:44;25.40;1.00
51091;DHT22;37136;43.614;3.908;2022-07-18T01:32:11;25.50;1.00
51091;DHT22;37136;43.614;3.908;2022-07-18T01:34:37;25.40;1.00
51091;DHT22;37136;43.614;3.908;2022-07-18T01:37:04;25.30;1.00
51091;DHT22;37136;43.614;3.908;2022-07-18T01:39:31;25.40;1.00
51091;DHT22;37136;43.614;3.908;2022-07-18T01:42:08;25.40;1.00
51091;DHT22;37136;43.614;3.908;2022-07-18T01:44:34;25.40;1.00
51091;DHT22;37136;43.614;3.908;2022-07-18T01:47:01;25.60;1.00
51091;DHT22;37136;43.614;3.908;2022-07-18T01:49:27;25.50;1.00
51091;DHT22;37136;43.614;3.908;2022-07-18T01:51:55;25.50;1.00
51091;DHT22;37136;43.614;3.908;2022-07-18T01:54:23;25.50;1.00
51091;DHT22;37136;43.614;3.908;2022-07-18T01:56:49;25.40;1.00
51091;DHT22;37136;43.614;3.908;2022-07-18T01:59:15;25.50;1.00
51091;DHT22;37136;43.614;3.908;2022-07-18T02:01:41;25.50;1.00
51091;DHT22;37136;43.614;3.908;2022-07-18T02:04:06;25.50;1.00
51091;DHT22;37136;43.614;3.908;2022-07-18T02:06:32;25.50;1.00
51091;DHT22;37136;43.614;3.908;2022-07-18T02:08:58;25.50;1.00
51091;DHT22;37136;43.614;3.908;2022-07-18T02:11:24;25.40;1.00
51091;DHT22;37136;43.614;3.908;2022-07-18T02:13:49;25.40;1.00
51091;DHT22;37136;43.614;3.908;2022-07-18T02:16:16;25.30;1.00
51091;DHT22;37136;43.614;3.908;2022-07-18T02:18:41;25.20;1.00
51091;DHT22;37136;43.614;3.908;2022-07-18T02:21:07;25.10;1.00
51091;DHT22;37136;43.614;3.908;2022-07-18T02:23:34;25.10;1.00
51091;DHT22;37136;43.614;3.908;2022-07-18T02:26:00;24.80;23.10
51091;DHT22;37136;43.614;3.908;2022-07-18T02:28:26;24.70;43.40
51091;DHT22;37136;43.614;3.908;2022-07-18T02:30:52;24.80;36.30
51091;DHT22;37136;43.614;3.908;2022-07-18T02:33:18;25.00;3.30
51091;DHT22;37136;43.614;3.908;2022-07-18T02:35:44;25.00;3.50
51091;DHT22;37136;43.614;3.908;2022-07-18T02:38:10;25.00;3.60
51091;DHT22;37136;43.614;3.908;2022-07-18T02:40:36;24.80;33.70
51091;DHT22;37136;43.614;3.908;2022-07-18T02:43:02;24.90;1.00
51091;DHT22;37136;43.614;3.908;2022-07-18T02:45:28;25.00;1.00
51091;DHT22;37136;43.614;3.908;2022-07-18T02:47:53;25.20;1.00
51091;DHT22;37136;43.614;3.908;2022-07-18T02:50:20;25.20;1.00
51091;DHT22;37136;43.614;3.908;2022-07-18T02:52:46;24.90;1.00
51091;DHT22;37136;43.614;3.908;2022-07-18T02:55:12;24.80;11.30
51091;DHT22;37136;43.614;3.908;2022-07-18T02:57:39;24.80;3.00
51091;DHT22;37136;43.614;3.908;2022-07-18T03:00:07;24.70;40.60
51091;DHT22;37136;43.614;3.908;2022-07-18T03:02:34;24.70;29.30
51091;DHT22;37136;43.614;3.908;2022-07-18T03:05:00;24.60;49.50
51091;DHT22;37136;43.614;3.908;2022-07-18T03:07:26;24.50;91.10
51091;DHT22;37136;43.614;3.908;2022-07-18T03:09:52;24.60;74.90
51091;DHT22;37136;43.614;3.908;2022-07-18T03:12:18;24.70;55.40
51091;DHT22;37136;43.614;3.908;2022-07-18T03:14:44;24.80;28.20
51091;DHT22;37136;43.614;3.908;2022-07-18T03:17:10;24.90;2.20
51091;DHT22;37136;43.614;3.908;2022-07-18T03:19:36;24.90;1.00
51091;DHT22;37136;43.614;3.908;2022-07-18T03:22:03;25.00;1.00
51091;DHT22;37136;43.614;3.908;2022-07-18T03:24:29;24.90;1.00
51091;DHT22;37136;43.614;3.908;2022-07-18T03:26:55;24.70;22.30
51091;DHT22;37136;43.614;3.908;2022-07-18T03:29:21;24.50;54.40
51091;DHT22;37136;43.614;3.908;2022-07-18T03:31:47;24.40;87.10
51091;DHT22;37136;43.614;3.908;2022-07-18T03:34:13;24.50;73.80
51091;DHT22;37136;43.614;3.908;2022-07-18T03:36:39;24.40;70.50
51091;DHT22;37136;43.614;3.908;2022-07-18T03:39:06;24.50;47.80
51091;DHT22;37136;43.614;3.908;2022-07-18T03:41:32;24.50;43.40
51091;DHT22;37136;43.614;3.908;2022-07-18T03:43:58;24.70;18.60
51091;DHT22;37136;43.614;3.908;2022-07-18T03:46:24;24.60;10.80
51091;DHT22;37136;43.614;3.908;2022-07-18T03:48:50;24.70;1.00
51091;DHT22;37136;43.614;3.908;2022-07-18T03:51:16;24.70;1.00
51091;DHT22;37136;43.614;3.908;2022-07-18T03:53:41;24.80;1.00
51091;DHT22;37136;43.614;3.908;2022-07-18T03:56:08;24.80;1.00
51091;DHT22;37136;43.614;3.908;2022-07-18T03:58:33;24.60;1.00
51091;DHT22;37136;43.614;3.908;2022-07-18T04:01:00;24.60;1.00
51091;DHT22;37136;43.614;3.908;2022-07-18T04:03:26;24.70;1.00
51091;DHT22;37136;43.614;3.908;2022-07-18T04:05:52;24.80;1.00
51091;DHT22;37136;43.614;3.908;2022-07-18T04:08:17;24.70;1.00
51091;DHT22;37136;43.614;3.908;2022-07-18T04:10:44;24.60;1.00
51091;DHT22;37136;43.614;3.908;2022-07-18T04:13:10;24.60;1.00
51091;DHT22;37136;43.614;3.908;2022-07-18T04:15:37;24.50;1.00
51091;DHT22;37136;43.614;3.908;2022-07-18T04:18:04;24.60;1.00
51091;DHT22;37136;43.614;3.908;2022-07-18T04:20:31;24.60;1.00
51091;DHT22;37136;43.614;3.908;2022-07-18T04:22:59;24.50;1.00
51091;DHT22;37136;43.614;3.908;2022-07-18T04:25:27;24.40;1.00
51091;DHT22;37136;43.614;3.908;2022-07-18T04:27:54;24.50;1.00
51091;DHT22;37136;43.614;3.908;2022-07-18T04:30:23;24.50;1.00
51091;DHT22;37136;43.614;3.908;2022-07-18T04:32:49;24.40;1.00
51091;DHT22;37136;43.614;3.908;2022-07-18T04:35:15;24.30;1.00
51091;DHT22;37136;43.614;3.908;2022-07-18T04:37:41;24.20;5.50
51091;DHT22;37136;43.614;3.908;2022-07-18T04:40:08;24.20;11.50
51091;DHT22;37136;43.614;3.908;2022-07-18T04:42:34;24.20;7.60
51091;DHT22;37136;43.614;3.908;2022-07-18T04:45:00;24.20;1.00
51091;DHT22;37136;43.614;3.908;2022-07-18T04:47:27;24.20;1.00
51091;DHT22;37136;43.614;3.908;2022-07-18T04:49:54;24.30;1.00
51091;DHT22;37136;43.614;3.908;2022-07-18T04:52:20;24.30;1.00
51091;DHT22;37136;43.614;3.908;2022-07-18T04:54:46;24.50;1.00
51091;DHT22;37136;43.614;3.908;2022-07-18T04:57:12;24.50;1.00
51091;DHT22;37136;43.614;3.908;2022-07-18T04:59:41;24.40;1.00
51091;DHT22;37136;43.614;3.908;2022-07-18T05:02:08;24.40;1.00
51091;DHT22;37136;43.614;3.908;2022-07-18T05:04:34;24.40;1.00
51091;DHT22;37136;43.614;3.908;2022-07-18T05:07:00;24.60;1.00
51091;DHT22;37136;43.614;3.908;2022-07-18T05:09:26;24.70;1.00
51091;DHT22;37136;43.614;3.908;2022-07-18T05:11:52;24.60;1.00
51091;DHT22;37136;43.614;3.908;2022-07-18T05:14:18;24.50;1.00
51091;DHT22;37136;43.614;3.908;2022-07-18T05:16:44;24.70;1.00
51091;DHT22;37136;43.614;3.908;2022-07-18T05:19:09;24.80;1.00
51091;DHT22;37136;43.614;3.908;2022-07-18T05:21:35;24.70;1.00
51091;DHT22;37136;43.614;3.908;2022-07-18T05:24:01;24.60;1.00
51091;DHT22;37136;43.614;3.908;2022-07-18T05:26:27;24.80;1.00
51091;DHT22;37136;43.614;3.908;2022-07-18T05:28:52;24.90;1.00
51091;DHT22;37136;43.614;3.908;2022-07-18T05:31:18;25.00;99.90
51091;DHT22;37136;43.614;3.908;2022-07-18T05:33:44;25.10;99.90
51091;DHT22;37136;43.614;3.908;2022-07-18T05:36:10;25.20;99.90
51091;DHT22;37136;43.614;3.908;2022-07-18T05:38:36;25.30;99.90
51091;DHT22;37136;43.614;3.908;2022-07-18T05:41:02;25.50;99.90
51091;DHT22;37136;43.614;3.908;2022-07-18T05:43:27;25.60;99.90
51091;DHT22;37136;43.614;3.908;2022-07-18T05:45:53;25.60;99.90
51091;DHT22;37136;43.614;3.908;2022-07-18T05:48:19;25.70;99.90
51091;DHT22;37136;43.614;3.908;2022-07-18T05:50:44;25.80;99.90
51091;DHT22;37136;43.614;3.908;2022-07-18T05:53:10;25.80;99.90
51091;DHT22;37136;43.614;3.908;2022-07-18T05:55:37;25.90;99.90
51091;DHT22;37136;43.614;3.908;2022-07-18T05:58:03;26.00;99.90
51091;DHT22;37136;43.614;3.908;2022-07-18T06:00:29;26.20;99.90
51091;DHT22;37136;43.614;3.908;2022-07-18T06:02:56;26.40;99.90
51091;DHT22;37136;43.614;3.908;2022-07-18T06:05:22;26.50;99.90
51091;DHT22;37136;43.614;3.908;2022-07-18T06:07:48;26.60;99.90
51091;DHT22;37136;43.614;3.908;2022-07-18T06:10:14;26.80;81.00
51091;DHT22;37136;43.614;3.908;2022-07-18T06:12:40;26.90;20.80
51091;DHT22;37136;43.614;3.908;2022-07-18T06:15:09;26.90;11.30
51091;DHT22;37136;43.614;3.908;2022-07-18T06:17:36;27.10;1.60
51091;DHT22;37136;43.614;3.908;2022-07-18T06:20:02;27.10;1.00
51091;DHT22;37136;43.614;3.908;2022-07-18T06:22:30;27.10;1.00
51091;DHT22;37136;43.614;3.908;2022-07-18T06:24:56;27.30;1.00
51091;DHT22;37136;43.614;3.908;2022-07-18T06:27:22;27.30;1.00
51091;DHT22;37136;43.614;3.908;2022-07-18T06:29:48;27.40;1.00
51091;DHT22;37136;43.614;3.908;2022-07-18T06:32:13;27.50;1.00
51091;DHT22;37136;43.614;3.908;2022-07-18T06:34:39;27.60;1.00
51091;DHT22;37136;43.614;3.908;2022-07-18T06:37:05;27.70;1.00
51091;DHT22;37136;43.614;3.908;2022-07-18T06:39:31;27.80;99.90
51091;DHT22;37136;43.614;3.908;2022-07-18T06:41:56;27.90;99.90
51091;DHT22;37136;43.614;3.908;2022-07-18T06:44:22;28.10;99.90
51091;DHT22;37136;43.614;3.908;2022-07-18T06:46:48;28.10;99.90
51091;DHT22;37136;43.614;3.908;2022-07-18T06:49:13;28.20;99.90
51091;DHT22;37136;43.614;3.908;2022-07-18T06:51:41;28.30;99.90
51091;DHT22;37136;43.614;3.908;2022-07-18T06:54:06;28.30;99.90
51091;DHT22;37136;43.614;3.908;2022-07-18T06:56:32;28.40;99.90
51091;DHT22;37136;43.614;3.908;2022-07-18T06:58:58;28.50;99.90
51091;DHT22;37136;43.614;3.908;2022-07-18T07:01:23;28.60;99.90
51091;DHT22;37136;43.614;3.908;2022-07-18T07:03:50;28.70;99.90
51091;DHT22;37136;43.614;3.908;2022-07-18T07:06:16;28.70;99.90
51091;DHT22;37136;43.614;3.908;2022-07-18T07:08:43;28.80;99.90
51091;DHT22;37136;43.614;3.908;2022-07-18T07:11:08;28.90;99.90
51091;DHT22;37136;43.614;3.908;2022-07-18T07:13:34;28.90;99.90
51091;DHT22;37136;43.614;3.908;2022-07-18T07:16:00;29.10;99.90
51091;DHT22;37136;43.614;3.908;2022-07-18T07:18:26;29.20;99.90
51091;DHT22;37136;43.614;3.908;2022-07-18T07:20:52;29.20;99.90
51091;DHT22;37136;43.614;3.908;2022-07-18T07:23:17;29.30;99.90
51091;DHT22;37136;43.614;3.908;2022-07-18T07:25:43;29.20;99.90
51091;DHT22;37136;43.614;3.908;2022-07-18T07:28:09;29.30;99.90
51091;DHT22;37136;43.614;3.908;2022-07-18T07:30:35;29.50;99.90
51091;DHT22;37136;43.614;3.908;2022-07-18T07:33:01;29.70;99.90
51091;DHT22;37136;43.614;3.908;2022-07-18T07:35:28;29.70;99.90
51091;DHT22;37136;43.614;3.908;2022-07-18T07:37:57;29.60;99.90
51091;DHT22;37136;43.614;3.908;2022-07-18T07:40:25;29.60;99.90
51091;DHT22;37136;43.614;3.908;2022-07-18T07:42:52;29.70;99.90
51091;DHT22;37136;43.614;3.908;2022-07-18T07:45:18;29.70;99.90
51091;DHT22;37136;43.614;3.908;2022-07-18T07:47:45;30.00;99.90
51091;DHT22;37136;43.614;3.908;2022-07-18T07:50:12;30.10;99.90
51091;DHT22;37136;43.614;3.908;2022-07-18T07:52:38;29.90;99.90
51091;DHT22;37136;43.614;3.908;2022-07-18T07:55:05;30.10;99.90
51091;DHT22;37136;43.614;3.908;2022-07-18T07:57:32;30.30;99.90
51091;DHT22;37136;43.614;3.908;2022-07-18T07:59:58;30.10;99.90
51091;DHT22;37136;43.614;3.908;2022-07-18T08:02:24;30.20;99.90
51091;DHT22;37136;43.614;3.908;2022-07-18T08:04:49;30.30;99.90
51091;DHT22;37136;43.614;3.908;2022-07-18T08:07:16;30.30;99.90
51091;DHT22;37136;43.614;3.908;2022-07-18T08:09:42;30.40;99.90
51091;DHT22;37136;43.614;3.908;2022-07-18T08:12:08;30.50;99.90
51091;DHT22;37136;43.614;3.908;2022-07-18T08:14:36;30.50;99.90
51091;DHT22;37136;43.614;3.908;2022-07-18T08:17:05;30.70;99.90
51091;DHT22;37136;43.614;3.908;2022-07-18T08:19:31;30.80;99.90
51091;DHT22;37136;43.614;3.908;2022-07-18T08:21:57;31.00;99.90
51091;DHT22;37136;43.614;3.908;2022-07-18T08:24:23;31.00;99.90
51091;DHT22;37136;43.614;3.908;2022-07-18T08:26:49;31.20;99.90
51091;DHT22;37136;43.614;3.908;2022-07-18T08:29:14;31.40;99.90
51091;DHT22;37136;43.614;3.908;2022-07-18T08:31:40;31.40;99.90
51091;DHT22;37136;43.614;3.908;2022-07-18T08:34:06;31.50;99.90
51091;DHT22;37136;43.614;3.908;2022-07-18T08:36:32;31.60;99.90
51091;DHT22;37136;43.614;3.908;2022-07-18T08:38:57;31.70;99.90
51091;DHT22;37136;43.614;3.908;2022-07-18T08:41:24;31.60;99.90
51091;DHT22;37136;43.614;3.908;2022-07-18T08:43:50;31.80;99.90
51091;DHT22;37136;43.614;3.908;2022-07-18T08:46:21;31.90;99.90
51091;DHT22;37136;43.614;3.908;2022-07-18T08:48:50;32.10;99.90
51091;DHT22;37136;43.614;3.908;2022-07-18T08:51:18;32.10;99.90
51091;DHT22;37136;43.614;3.908;2022-07-18T08:53:46;32.20;99.90
51091;DHT22;37136;43.614;3.908;2022-07-18T08:56:13;32.30;99.90
51091;DHT22;37136;43.614;3.908;2022-07-18T08:58:39;32.20;99.90
51091;DHT22;37136;43.614;3.908;2022-07-18T09:01:05;32.40;99.90
51091;DHT22;37136;43.614;3.908;2022-07-18T09:03:31;32.30;99.90
51091;DHT22;37136;43.614;3.908;2022-07-18T09:06:12;32.60;99.90
51091;DHT22;37136;43.614;3.908;2022-07-18T09:08:39;32.80;99.90
51091;DHT22;37136;43.614;3.908;2022-07-18T09:11:10;32.70;99.90
51091;DHT22;37136;43.614;3.908;2022-07-18T09:13:40;32.70;99.90
51091;DHT22;37136;43.614;3.908;2022-07-18T09:16:10;32.70;99.90
51091;DHT22;37136;43.614;3.908;2022-07-18T09:18:42;32.70;99.90
51091;DHT22;37136;43.614;3.908;2022-07-18T09:21:11;32.70;99.90
51091;DHT22;37136;43.614;3.908;2022-07-18T09:23:43;32.70;99.90
51091;DHT22;37136;43.614;3.908;2022-07-18T09:26:10;32.80;99.90
51091;DHT22;37136;43.614;3.908;2022-07-18T09:28:51;32.70;99.90
51091;DHT22;37136;43.614;3.908;2022-07-18T09:31:22;32.70;99.90
51091;DHT22;37136;43.614;3.908;2022-07-18T09:34:00;32.90;99.90
51091;DHT22;37136;43.614;3.908;2022-07-18T09:36:27;32.90;99.90
51091;DHT22;37136;43.614;3.908;2022-07-18T09:38:53;33.20;99.90
51091;DHT22;37136;43.614;3.908;2022-07-18T09:41:27;33.40;99.90
51091;DHT22;37136;43.614;3.908;2022-07-18T09:43:54;33.50;99.90
51091;DHT22;37136;43.614;3.908;2022-07-18T09:46:20;33.50;99.90
51091;DHT22;37136;43.614;3.908;2022-07-18T09:48:46;33.40;99.90
51091;DHT22;37136;43.614;3.908;2022-07-18T09:51:12;33.30;99.90
51091;DHT22;37136;43.614;3.908;2022-07-18T09:53:42;33.50;99.90
51091;DHT22;37136;43.614;3.908;2022-07-18T09:56:12;33.50;99.90
51091;DHT22;37136;43.614;3.908;2022-07-18T09:58:55;33.60;99.90
51091;DHT22;37136;43.614;3.908;2022-07-18T10:03:44;33.90;99.90
51091;DHT22;37136;43.614;3.908;2022-07-18T10:06:10;34.00;99.90
51091;DHT22;37136;43.614;3.908;2022-07-18T10:08:37;34.10;99.90
51091;DHT22;37136;43.614;3.908;2022-07-18T10:11:05;34.20;99.90
51091;DHT22;37136;43.614;3.908;2022-07-18T10:13:32;34.30;99.90
51091;DHT22;37136;43.614;3.908;2022-07-18T10:16:01;34.10;99.90
51091;DHT22;37136;43.614;3.908;2022-07-18T10:18:29;34.10;99.90
51091;DHT22;37136;43.614;3.908;2022-07-18T10:21:13;34.20;99.90
51091;DHT22;37136;43.614;3.908;2022-07-18T10:23:45;34.30;99.90
51091;DHT22;37136;43.614;3.908;2022-07-18T10:34:08;34.50;99.90
51091;DHT22;37136;43.614;3.908;2022-07-18T10:39:18;34.50;99.90
51091;DHT22;37136;43.614;3.908;2022-07-18T10:47:19;34.70;99.90
51091;DHT22;37136;43.614;3.908;2022-07-18T11:00:33;34.70;99.90
51091;DHT22;37136;43.614;3.908;2022-07-18T11:03:04;34.40;99.90
51091;DHT22;37136;43.614;3.908;2022-07-18T11:21:29;34.50;99.90
51091;DHT22;37136;43.614;3.908;2022-07-18T11:24:01;34.50;99.90
51091;DHT22;37136;43.614;3.908;2022-07-18T11:26:28;34.60;99.90
51091;DHT22;37136;43.614;3.908;2022-07-18T11:29:05;34.50;99.90
51091;DHT22;37136;43.614;3.908;2022-07-18T11:31:35;34.60;99.90
51091;DHT22;37136;43.614;3.908;2022-07-18T11:34:07;34.80;99.90
51091;DHT22;37136;43.614;3.908;2022-07-18T11:36:33;34.80;99.90
51091;DHT22;37136;43.614;3.908;2022-07-18T11:39:03;34.50;99.90
51091;DHT22;37136;43.614;3.908;2022-07-18T11:41:29;34.80;99.90
51091;DHT22;37136;43.614;3.908;2022-07-18T11:43:56;34.60;99.90
51091;DHT22;37136;43.614;3.908;2022-07-18T11:46:24;34.80;99.90
51091;DHT22;37136;43.614;3.908;2022-07-18T11:49:04;34.80;99.90
51091;DHT22;37136;43.614;3.908;2022-07-18T11:51:49;34.90;99.90
51091;DHT22;37136;43.614;3.908;2022-07-18T11:54:22;34.80;99.90
51091;DHT22;37136;43.614;3.908;2022-07-18T11:56:51;34.90;99.90
51091;DHT22;37136;43.614;3.908;2022-07-18T11:59:17;34.90;99.90
51091;DHT22;37136;43.614;3.908;2022-07-18T12:01:44;35.00;99.90
51091;DHT22;37136;43.614;3.908;2022-07-18T12:04:23;35.00;99.90
51091;DHT22;37136;43.614;3.908;2022-07-18T12:07:12;35.10;99.90
51091;DHT22;37136;43.614;3.908;2022-07-18T12:10:27;34.90;99.90
51091;DHT22;37136;43.614;3.908;2022-07-18T12:12:53;35.00;99.90
51091;DHT22;37136;43.614;3.908;2022-07-18T12:15:19;34.80;99.90
51091;DHT22;37136;43.614;3.908;2022-07-18T12:17:47;35.20;99.90
51091;DHT22;37136;43.614;3.908;2022-07-18T12:20:20;35.10;99.90
51091;DHT22;37136;43.614;3.908;2022-07-18T12:23:11;35.20;99.90
51091;DHT22;37136;43.614;3.908;2022-07-18T12:25:39;35.40;99.90
51091;DHT22;37136;43.614;3.908;2022-07-18T12:28:18;35.00;99.90
51091;DHT22;37136;43.614;3.908;2022-07-18T12:30:45;34.90;99.90
51091;DHT22;37136;43.614;3.908;2022-07-18T12:33:11;35.20;99.90
51091;DHT22;37136;43.614;3.908;2022-07-18T12:35:37;35.30;99.90
51091;DHT22;37136;43.614;3.908;2022-07-18T12:38:14;35.00;99.90
51091;DHT22;37136;43.614;3.908;2022-07-18T12:41:01;35.30;99.90
51091;DHT22;37136;43.614;3.908;2022-07-18T12:43:34;34.90;99.90
51091;DHT22;37136;43.614;3.908;2022-07-18T12:46:05;35.00;99.90
51091;DHT22;37136;43.614;3.908;2022-07-18T12:48:33;35.40;99.90
51091;DHT22;37136;43.614;3.908;2022-07-18T12:51:05;35.20;99.90
51091;DHT22;37136;43.614;3.908;2022-07-18T12:53:34;35.10;99.90
51091;DHT22;37136;43.614;3.908;2022-07-18T12:56:00;35.10;99.90
51091;DHT22;37136;43.614;3.908;2022-07-18T12:58:26;35.00;99.90
51091;DHT22;37136;43.614;3.908;2022-07-18T13:00:52;35.00;99.90
51091;DHT22;37136;43.614;3.908;2022-07-18T13:03:20;35.30;99.90
51091;DHT22;37136;43.614;3.908;2022-07-18T13:05:46;35.50;99.90
51091;DHT22;37136;43.614;3.908;2022-07-18T13:08:12;35.50;99.90
51091;DHT22;37136;43.614;3.908;2022-07-18T13:10:38;35.60;99.90
51091;DHT22;37136;43.614;3.908;2022-07-18T13:13:06;35.70;99.90
51091;DHT22;37136;43.614;3.908;2022-07-18T13:15:33;35.80;99.90
51091;DHT22;37136;43.614;3.908;2022-07-18T13:17:59;35.70;99.90
51091;DHT22;37136;43.614;3.908;2022-07-18T13:20:25;35.90;99.90
51091;DHT22;37136;43.614;3.908;2022-07-18T13:22:52;35.90;99.90
51091;DHT22;37136;43.614;3.908;2022-07-18T13:25:19;35.90;99.90
51091;DHT22;37136;43.614;3.908;2022-07-18T13:27:45;35.80;99.90
51091;DHT22;37136;43.614;3.908;2022-07-18T13:30:11;35.60;99.90
51091;DHT22;37136;43.614;3.908;2022-07-18T13:32:36;35.50;99.90
51091;DHT22;37136;43.614;3.908;2022-07-18T13:35:03;35.40;99.90
51091;DHT22;37136;43.614;3.908;2022-07-18T13:37:30;35.40;99.90
51091;DHT22;37136;43.614;3.908;2022-07-18T13:39:56;35.60;99.90
51091;DHT22;37136;43.614;3.908;2022-07-18T13:42:24;35.50;99.90
51091;DHT22;37136;43.614;3.908;2022-07-18T13:44:50;35.70;99.90
51091;DHT22;37136;43.614;3.908;2022-07-18T13:47:24;35.30;99.90
51091;DHT22;37136;43.614;3.908;2022-07-18T13:49:55;35.30;99.90
51091;DHT22;37136;43.614;3.908;2022-07-18T13:52:21;35.50;99.90
51091;DHT22;37136;43.614;3.908;2022-07-18T13:54:47;35.30;99.90
51091;DHT22;37136;43.614;3.908;2022-07-18T13:57:14;35.20;99.90
51091;DHT22;37136;43.614;3.908;2022-07-18T13:59:43;35.50;99.90
51091;DHT22;37136;43.614;3.908;2022-07-18T14:02:12;35.30;99.90
51091;DHT22;37136;43.614;3.908;2022-07-18T14:04:37;35.40;99.90
51091;DHT22;37136;43.614;3.908;2022-07-18T14:07:03;35.40;99.90
51091;DHT22;37136;43.614;3.908;2022-07-18T14:09:31;35.30;99.90
51091;DHT22;37136;43.614;3.908;2022-07-18T14:11:57;35.40;99.90
51091;DHT22;37136;43.614;3.908;2022-07-18T14:14:22;35.50;99.90
51091;DHT22;37136;43.614;3.908;2022-07-18T14:16:48;35.40;99.90
51091;DHT22;37136;43.614;3.908;2022-07-18T14:19:14;35.30;99.90
51091;DHT22;37136;43.614;3.908;2022-07-18T14:21:40;35.40;99.90
51091;DHT22;37136;43.614;3.908;2022-07-18T14:24:05;35.30;99.90
51091;DHT22;37136;43.614;3.908;2022-07-18T14:26:31;35.30;99.90
51091;DHT22;37136;43.614;3.908;2022-07-18T14:28:57;35.40;99.90
51091;DHT22;37136;43.614;3.908;2022-07-18T14:31:23;35.20;99.90
51091;DHT22;37136;43.614;3.908;2022-07-18T14:33:49;35.20;99.90
51091;DHT22;37136;43.614;3.908;2022-07-18T14:36:15;35.10;99.90
51091;DHT22;37136;43.614;3.908;2022-07-18T14:38:40;35.10;99.90
51091;DHT22;37136;43.614;3.908;2022-07-18T14:41:07;34.90;99.90
51091;DHT22;37136;43.614;3.908;2022-07-18T14:43:33;34.90;99.90
51091;DHT22;37136;43.614;3.908;2022-07-18T14:45:59;34.80;99.90
51091;DHT22;37136;43.614;3.908;2022-07-18T14:48:24;34.70;99.90
51091;DHT22;37136;43.614;3.908;2022-07-18T14:50:50;34.70;99.90
51091;DHT22;37136;43.614;3.908;2022-07-18T14:53:16;34.70;99.90
51091;DHT22;37136;43.614;3.908;2022-07-18T14:55:42;34.80;99.90
51091;DHT22;37136;43.614;3.908;2022-07-18T14:58:09;35.10;99.90
51091;DHT22;37136;43.614;3.908;2022-07-18T15:00:35;35.20;99.90
51091;DHT22;37136;43.614;3.908;2022-07-18T15:03:01;35.30;99.90
51091;DHT22;37136;43.614;3.908;2022-07-18T15:05:27;37.10;99.90
51091;DHT22;37136;43.614;3.908;2022-07-18T15:07:52;40.20;99.90
51091;DHT22;37136;43.614;3.908;2022-07-18T15:10:18;42.20;99.90
51091;DHT22;37136;43.614;3.908;2022-07-18T15:12:44;43.30;99.90
51091;DHT22;37136;43.614;3.908;2022-07-18T15:15:10;43.30;99.90
51091;DHT22;37136;43.614;3.908;2022-07-18T15:17:36;43.10;99.90
51091;DHT22;37136;43.614;3.908;2022-07-18T15:20:03;43.10;99.90
51091;DHT22;37136;43.614;3.908;2022-07-18T15:22:30;44.70;99.90
51091;DHT22;37136;43.614;3.908;2022-07-18T15:24:55;44.10;99.90
51091;DHT22;37136;43.614;3.908;2022-07-18T15:27:21;43.00;99.90
51091;DHT22;37136;43.614;3.908;2022-07-18T15:29:47;44.70;99.90
51091;DHT22;37136;43.614;3.908;2022-07-18T15:32:13;44.90;99.90
51091;DHT22;37136;43.614;3.908;2022-07-18T15:34:39;44.80;99.90
51091;DHT22;37136;43.614;3.908;2022-07-18T15:37:06;44.10;99.90
51091;DHT22;37136;43.614;3.908;2022-07-18T15:39:32;44.30;99.90
51091;DHT22;37136;43.614;3.908;2022-07-18T15:41:58;43.60;99.90
51091;DHT22;37136;43.614;3.908;2022-07-18T15:44:25;43.30;99.90
51091;DHT22;37136;43.614;3.908;2022-07-18T15:46:51;43.90;99.90
51091;DHT22;37136;43.614;3.908;2022-07-18T15:49:17;45.10;99.90
51091;DHT22;37136;43.614;3.908;2022-07-18T15:51:43;45.50;99.90
51091;DHT22;37136;43.614;3.908;2022-07-18T15:54:16;46.10;99.90
51091;DHT22;37136;43.614;3.908;2022-07-18T15:56:43;44.70;99.90
51091;DHT22;37136;43.614;3.908;2022-07-18T15:59:09;44.90;99.90
51091;DHT22;37136;43.614;3.908;2022-07-18T16:01:35;44.50;99.90
51091;DHT22;37136;43.614;3.908;2022-07-18T16:04:01;43.90;99.90
51091;DHT22;37136;43.614;3.908;2022-07-18T16:06:27;43.70;99.90
51091;DHT22;37136;43.614;3.908;2022-07-18T16:08:53;45.60;99.90
51091;DHT22;37136;43.614;3.908;2022-07-18T16:11:19;45.10;99.90
51091;DHT22;37136;43.614;3.908;2022-07-18T16:13:45;44.80;99.90
51091;DHT22;37136;43.614;3.908;2022-07-18T16:16:12;44.60;99.90
51091;DHT22;37136;43.614;3.908;2022-07-18T16:18:38;45.30;99.90
51091;DHT22;37136;43.614;3.908;2022-07-18T16:21:04;45.40;99.90